sensor_id;sensor_type;location;lat;lon;timestamp;temperature;humidity
21518;DHT22;61765;45.794;24.150;2023-08-06T00:01:02;30.30;64.20
21518;DHT22;61765;45.794;24.150;2023-08-06T00:09:07;29.80;65.80
21518;DHT22;61765;45.794;24.150;2023-08-06T00:17:16;29.90;66.10
21518;DHT22;61765;45.794;24.150;2023-08-06T00:25:21;29.90;65.60
21518;DHT22;61765;45.794;24.150;2023-08-06T00:33:29;29.90;65.60
21518;DHT22;61765;45.794;24.150;2023-08-06T00:41:35;29.70;66.20
21518;DHT22;61765;45.794;24.150;2023-08-06T00:49:43;29.60;66.80
21518;DHT22;61765;45.794;24.150;2023-08-06T00:57:49;29.50;67.30
21518;DHT22;61765;45.794;24.150;2023-08-06T01:06:01;29.30;68.80
21518;DHT22;61765;45.794;24.150;2023-08-06T01:14:13;29.00;71.20
21518;DHT22;61765;45.794;24.150;2023-08-06T01:22:26;28.80;72.70
21518;DHT22;61765;45.794;24.150;2023-08-06T01:30:33;28.50;74.50
21518;DHT22;61765;45.794;24.150;2023-08-06T01:38:46;28.20;75.10
21518;DHT22;61765;45.794;24.150;2023-08-06T01:46:51;28.10;75.50
21518;DHT22;61765;45.794;24.150;2023-08-06T01:54:59;27.90;76.10
21518;DHT22;61765;45.794;24.150;2023-08-06T02:03:06;27.90;76.60
21518;DHT22;61765;45.794;24.150;2023-08-06T02:11:14;27.80;76.80
21518;DHT22;61765;45.794;24.150;2023-08-06T02:19:19;27.60;77.00
21518;DHT22;61765;45.794;24.150;2023-08-06T02:27:27;27.60;76.60
21518;DHT22;61765;45.794;24.150;2023-08-06T02:35:33;27.60;77.10
21518;DHT22;61765;45.794;24.150;2023-08-06T02:43:41;27.30;77.20
21518;DHT22;61765;45.794;24.150;2023-08-06T02:51:46;27.00;77.60
21518;DHT22;61765;45.794;24.150;2023-08-06T02:59:55;27.10;77.60
21518;DHT22;61765;45.794;24.150;2023-08-06T03:08:01;26.90;77.20
21518;DHT22;61765;45.794;24.150;2023-08-06T03:16:12;27.00;76.60
21518;DHT22;61765;45.794;24.150;2023-08-06T03:24:18;27.10;76.30
21518;DHT22;61765;45.794;24.150;2023-08-06T03:32:27;27.00;76.20
21518;DHT22;61765;45.794;24.150;2023-08-06T03:40:35;27.00;76.10
21518;DHT22;61765;45.794;24.150;2023-08-06T03:48:43;27.00;75.90
21518;DHT22;61765;45.794;24.150;2023-08-06T03:56:49;27.00;76.10
21518;DHT22;61765;45.794;24.150;2023-08-06T04:04:57;27.20;75.50
21518;DHT22;61765;45.794;24.150;2023-08-06T04:13:03;27.50;75.30
21518;DHT22;61765;45.794;24.150;2023-08-06T04:21:11;27.40;75.30
21518;DHT22;61765;45.794;24.150;2023-08-06T04:29:16;27.40;76.00
21518;DHT22;61765;45.794;24.150;2023-08-06T04:37:24;27.20;76.40
21518;DHT22;61765;45.794;24.150;2023-08-06T04:45:30;27.40;76.60
21518;DHT22;61765;45.794;24.150;2023-08-06T04:53:38;27.50;77.20
21518;DHT22;61765;45.794;24.150;2023-08-06T05:01:43;27.50;78.50
21518;DHT22;61765;45.794;24.150;2023-08-06T05:10:01;27.10;79.40
21518;DHT22;61765;45.794;24.150;2023-08-06T05:18:06;26.50;81.40
21518;DHT22;61765;45.794;24.150;2023-08-06T05:26:15;27.20;80.20
21518;DHT22;61765;45.794;24.150;2023-08-06T05:34:21;27.50;78.90
21518;DHT22;61765;45.794;24.150;2023-08-06T05:42:30;27.90;78.90
21518;DHT22;61765;45.794;24.150;2023-08-06T05:50:35;28.30;77.90
21518;DHT22;61765;45.794;24.150;2023-08-06T05:58:44;27.90;79.60
21518;DHT22;61765;45.794;24.150;2023-08-06T06:06:50;27.00;81.30
21518;DHT22;61765;45.794;24.150;2023-08-06T06:14:58;26.10;84.90
21518;DHT22;61765;45.794;24.150;2023-08-06T06:23:03;25.90;87.00
21518;DHT22;61765;45.794;24.150;2023-08-06T06:31:11;26.20;86.60
21518;DHT22;61765;45.794;24.150;2023-08-06T06:39:18;27.20;83.70
21518;DHT22;61765;45.794;24.150;2023-08-06T06:47:26;27.80;81.70
21518;DHT22;61765;45.794;24.150;2023-08-06T06:55:31;28.00;81.00
21518;DHT22;61765;45.794;24.150;2023-08-06T07:03:40;27.90;81.10
21518;DHT22;61765;45.794;24.150;2023-08-06T07:11:45;27.50;82.40
21518;DHT22;61765;45.794;24.150;2023-08-06T07:19:54;27.40;83.50
21518;DHT22;61765;45.794;24.150;2023-08-06T07:27:59;27.40;84.40
21518;DHT22;61765;45.794;24.150;2023-08-06T07:36:13;27.60;83.10
21518;DHT22;61765;45.794;24.150;2023-08-06T07:44:19;27.80;83.30
21518;DHT22;61765;45.794;24.150;2023-08-06T07:52:28;27.90;83.40
21518;DHT22;61765;45.794;24.150;2023-08-06T08:00:34;28.40;80.60
21518;DHT22;61765;45.794;24.150;2023-08-06T08:08:42;28.30;79.60
21518;DHT22;61765;45.794;24.150;2023-08-06T08:16:48;28.30;79.50
21518;DHT22;61765;45.794;24.150;2023-08-06T08:24:57;28.50;80.60
21518;DHT22;61765;45.794;24.150;2023-08-06T08:33:02;29.20;80.40
21518;DHT22;61765;45.794;24.150;2023-08-06T08:41:10;29.90;79.00
21518;DHT22;61765;45.794;24.150;2023-08-06T08:49:17;30.50;77.80
21518;DHT22;61765;45.794;24.150;2023-08-06T08:57:25;31.10;76.10
21518;DHT22;61765;45.794;24.150;2023-08-06T09:05:32;31.80;74.00
21518;DHT22;61765;45.794;24.150;2023-08-06T09:13:41;31.70;72.30
21518;DHT22;61765;45.794;24.150;2023-08-06T09:21:47;32.00;71.00
21518;DHT22;61765;45.794;24.150;2023-08-06T09:29:58;32.50;70.00
21518;DHT22;61765;45.794;24.150;2023-08-06T09:38:07;31.80;70.70
21518;DHT22;61765;45.794;24.150;2023-08-06T09:46:16;31.10;72.20
21518;DHT22;61765;45.794;24.150;2023-08-06T09:54:23;30.20;73.80
21518;DHT22;61765;45.794;24.150;2023-08-06T10:02:32;29.70;74.50
21518;DHT22;61765;45.794;24.150;2023-08-06T10:10:38;29.30;75.60
21518;DHT22;61765;45.794;24.150;2023-08-06T10:18:47;28.80;76.70
21518;DHT22;61765;45.794;24.150;2023-08-06T10:26:57;28.70;79.30
21518;DHT22;61765;45.794;24.150;2023-08-06T10:35:07;28.30;80.70
21518;DHT22;61765;45.794;24.150;2023-08-06T10:43:27;28.10;82.10
21518;DHT22;61765;45.794;24.150;2023-08-06T10:51:35;27.90;82.70
21518;DHT22;61765;45.794;24.150;2023-08-06T10:59:41;27.50;84.50
21518;DHT22;61765;45.794;24.150;2023-08-06T11:07:49;27.30;86.30
21518;DHT22;61765;45.794;24.150;2023-08-06T11:15:56;27.00;87.00
21518;DHT22;61765;45.794;24.150;2023-08-06T11:24:04;26.60;87.80
21518;DHT22;61765;45.794;24.150;2023-08-06T11:32:10;26.40;87.50
21518;DHT22;61765;45.794;24.150;2023-08-06T11:40:23;26.30;87.40
21518;DHT22;61765;45.794;24.150;2023-08-06T11:48:29;25.90;88.40
21518;DHT22;61765;45.794;24.150;2023-08-06T11:56:37;25.60;89.00
21518;DHT22;61765;45.794;24.150;2023-08-06T12:05:09;25.40;90.20
21518;DHT22;61765;45.794;24.150;2023-08-06T12:13:18;25.80;88.60
21518;DHT22;61765;45.794;24.150;2023-08-06T12:21:23;26.00;87.30
21518;DHT22;61765;45.794;24.150;2023-08-06T12:29:31;26.50;85.40
21518;DHT22;61765;45.794;24.150;2023-08-06T12:37:37;26.80;83.40
21518;DHT22;61765;45.794;24.150;2023-08-06T12:45:45;26.60;83.10
21518;DHT22;61765;45.794;24.150;2023-08-06T12:53:51;26.60;82.50
21518;DHT22;61765;45.794;24.150;2023-08-06T13:01:59;26.60;82.80
21518;DHT22;61765;45.794;24.150;2023-08-06T13:10:06;26.60;83.00
21518;DHT22;61765;45.794;24.150;2023-08-06T13:18:14;26.60;83.80
21518;DHT22;61765;45.794;24.150;2023-08-06T13:26:20;26.50;84.10
21518;DHT22;61765;45.794;24.150;2023-08-06T13:34:28;26.60;84.80
21518;DHT22;61765;45.794;24.150;2023-08-06T13:42:33;26.80;84.50
21518;DHT22;61765;45.794;24.150;2023-08-06T13:50:42;26.70;84.60
21518;DHT22;61765;45.794;24.150;2023-08-06T13:58:47;26.60;84.30
21518;DHT22;61765;45.794;24.150;2023-08-06T14:06:55;26.80;84.50
21518;DHT22;61765;45.794;24.150;2023-08-06T14:15:02;26.80;85.80
21518;DHT22;61765;45.794;24.150;2023-08-06T14:23:11;26.90;85.70
21518;DHT22;61765;45.794;24.150;2023-08-06T14:31:17;26.60;86.60
21518;DHT22;61765;45.794;24.150;2023-08-06T14:39:26;26.80;86.30
21518;DHT22;61765;45.794;24.150;2023-08-06T14:47:31;26.80;86.80
21518;DHT22;61765;45.794;24.150;2023-08-06T14:55:39;27.00;85.20
21518;DHT22;61765;45.794;24.150;2023-08-06T15:03:45;27.00;85.20
21518;DHT22;61765;45.794;24.150;2023-08-06T15:11:53;27.50;85.10
21518;DHT22;61765;45.794;24.150;2023-08-06T15:19:58;27.50;83.10
21518;DHT22;61765;45.794;24.150;2023-08-06T15:28:06;27.40;83.50
21518;DHT22;61765;45.794;24.150;2023-08-06T15:36:12;27.20;84.00
21518;DHT22;61765;45.794;24.150;2023-08-06T15:44:20;27.50;83.30
21518;DHT22;61765;45.794;24.150;2023-08-06T15:52:25;27.60;83.20
21518;DHT22;61765;45.794;24.150;2023-08-06T16:00:33;27.40;81.20
21518;DHT22;61765;45.794;24.150;2023-08-06T16:08:39;26.80;83.40
21518;DHT22;61765;45.794;24.150;2023-08-06T16:16:47;26.80;83.60
21518;DHT22;61765;45.794;24.150;2023-08-06T16:24:53;26.70;82.90
21518;DHT22;61765;45.794;24.150;2023-08-06T16:33:01;26.60;83.40
21518;DHT22;61765;45.794;24.150;2023-08-06T16:41:07;26.80;82.90
21518;DHT22;61765;45.794;24.150;2023-08-06T16:49:15;26.80;83.30
21518;DHT22;61765;45.794;24.150;2023-08-06T16:57:20;27.00;83.40
21518;DHT22;61765;45.794;24.150;2023-08-06T17:05:48;26.90;83.30
21518;DHT22;61765;45.794;24.150;2023-08-06T17:15:19;26.80;83.20
21518;DHT22;61765;45.794;24.150;2023-08-06T17:23:32;26.40;83.10
21518;DHT22;61765;45.794;24.150;2023-08-06T17:31:40;26.20;83.80
21518;DHT22;61765;45.794;24.150;2023-08-06T17:39:54;26.20;83.40
21518;DHT22;61765;45.794;24.150;2023-08-06T17:48:05;26.20;83.40
21518;DHT22;61765;45.794;24.150;2023-08-06T17:56:19;26.40;84.30
21518;DHT22;61765;45.794;24.150;2023-08-06T18:04:26;26.30;83.30
21518;DHT22;61765;45.794;24.150;2023-08-06T18:12:37;26.10;81.90
21518;DHT22;61765;45.794;24.150;2023-08-06T18:20:45;26.00;82.20
21518;DHT22;61765;45.794;24.150;2023-08-06T18:28:53;25.70;84.70
21518;DHT22;61765;45.794;24.150;2023-08-06T18:36:59;25.40;85.90
21518;DHT22;61765;45.794;24.150;2023-08-06T18:45:08;25.10;85.70
21518;DHT22;61765;45.794;24.150;2023-08-06T18:53:13;25.00;86.00
21518;DHT22;61765;45.794;24.150;2023-08-06T19:01:21;24.90;86.00
21518;DHT22;61765;45.794;24.150;2023-08-06T19:09:27;25.00;85.70
21518;DHT22;61765;45.794;24.150;2023-08-06T19:17:35;24.80;85.80
21518;DHT22;61765;45.794;24.150;2023-08-06T19:25:41;24.90;85.70
21518;DHT22;61765;45.794;24.150;2023-08-06T19:33:50;24.90;85.70
21518;DHT22;61765;45.794;24.150;2023-08-06T19:41:55;25.00;85.60
21518;DHT22;61765;45.794;24.150;2023-08-06T19:50:04;25.00;85.70
21518;DHT22;61765;45.794;24.150;2023-08-06T19:58:10;25.00;85.30
21518;DHT22;61765;45.794;24.150;2023-08-06T20:06:18;24.90;84.10
21518;DHT22;61765;45.794;24.150;2023-08-06T20:14:28;24.70;83.40
21518;DHT22;61765;45.794;24.150;2023-08-06T20:22:36;24.70;83.20
21518;DHT22;61765;45.794;24.150;2023-08-06T20:30:41;24.70;83.40
21518;DHT22;61765;45.794;24.150;2023-08-06T20:38:50;24.50;84.00
21518;DHT22;61765;45.794;24.150;2023-08-06T20:46:57;24.50;84.10
21518;DHT22;61765;45.794;24.150;2023-08-06T20:55:06;24.40;84.00
21518;DHT22;61765;45.794;24.150;2023-08-06T21:03:12;24.50;83.90
21518;DHT22;61765;45.794;24.150;2023-08-06T21:11:26;24.40;83.70
21518;DHT22;61765;45.794;24.150;2023-08-06T21:19:32;24.40;84.00
21518;DHT22;61765;45.794;24.150;2023-08-06T21:27:40;24.50;83.70
21518;DHT22;61765;45.794;24.150;2023-08-06T21:35:50;24.50;83.80
21518;DHT22;61765;45.794;24.150;2023-08-06T21:43:58;24.40;84.00
21518;DHT22;61765;45.794;24.150;2023-08-06T21:52:04;24.50;84.10
21518;DHT22;61765;45.794;24.150;2023-08-06T22:00:14;24.20;84.10
21518;DHT22;61765;45.794;24.150;2023-08-06T22:08:21;24.10;84.60
21518;DHT22;61765;45.794;24.150;2023-08-06T22:16:29;24.00;84.80
21518;DHT22;61765;45.794;24.150;2023-08-06T22:24:35;23.80;86.20
21518;DHT22;61765;45.794;24.150;2023-08-06T22:32:43;23.70;86.10
21518;DHT22;61765;45.794;24.150;2023-08-06T22:40:49;23.60;86.50
21518;DHT22;61765;45.794;24.150;2023-08-06T22:48:57;23.40;86.40
21518;DHT22;61765;45.794;24.150;2023-08-06T22:57:02;23.40;86.20
21518;DHT22;61765;45.794;24.150;2023-08-06T23:05:10;23.40;86.00
21518;DHT22;61765;45.794;24.150;2023-08-06T23:13:16;23.30;85.80
21518;DHT22;61765;45.794;24.150;2023-08-06T23:21:24;23.00;86.70
21518;DHT22;61765;45.794;24.150;2023-08-06T23:29:29;22.90;86.80
21518;DHT22;61765;45.794;24.150;2023-08-06T23:37:37;22.70;87.00
21518;DHT22;61765;45.794;24.150;2023-08-06T23:45:43;22.80;86.40
21518;DHT22;61765;45.794;24.150;2023-08-06T23:53:51;22.80;86.30
